Fishers Ferry, Pennsylvania
Current Conditions -  °F | °C
As of 10:53 PM on Saturday 22 Nov 2014 (Local Time) from KSEG Reporting Station
Clear Clear  
Wind Chill: 34°   Ceiling: Unl
Heat Index: 38°   Visibility: 10mi
Dew Point: 17°   Wind: 5mph
Humidity: 43%   Direction: 200°SSW
Pressure: 30.19"   Gusts: NA
Location:  40.83°N, 76.761°W
Report Text: KSEG 230353Z AUTO 20004KT 10SM CLR 03/M08 A3019 RMK AO2 SLP227 T00331083
Loading
Personal Weather Stations






























Interactive Weather Map New forecast layout! Learn more

10-Day Weather Forecast

Advertisements
Track Severe Weather on mobile